createdAt,value
2022-12-19T00:00:13.591Z,2.10
2022-12-19T00:02:42.262Z,2.10
2022-12-19T00:05:13.501Z,2.10
2022-12-19T00:07:40.375Z,2.00
2022-12-19T00:10:08.337Z,2.00
2022-12-19T00:12:37.430Z,2.00
2022-12-19T00:15:04.847Z,2.00
2022-12-19T00:17:32.992Z,2.00
2022-12-19T00:20:01.725Z,2.10
2022-12-19T00:22:28.571Z,2.10
2022-12-19T00:24:55.445Z,2.10
2022-12-19T00:27:25.393Z,2.00
2022-12-19T00:29:52.194Z,2.00
2022-12-19T00:32:21.165Z,2.00
2022-12-19T00:34:47.961Z,2.00
2022-12-19T00:37:17.282Z,2.00
2022-12-19T00:39:44.103Z,2.00
2022-12-19T00:42:11.061Z,2.00
2022-12-19T00:44:37.997Z,2.00
2022-12-19T00:47:07.140Z,2.00
2022-12-19T00:49:34.012Z,2.00
2022-12-19T00:52:04.841Z,2.00
2022-12-19T00:54:31.743Z,2.10
2022-12-19T00:56:58.619Z,2.10
2022-12-19T00:59:26.789Z,2.10
2022-12-19T01:01:56.914Z,2.10
2022-12-19T01:04:28.520Z,2.10
2022-12-19T01:07:02.180Z,2.10
2022-12-19T01:09:31.272Z,2.10
2022-12-19T01:12:17.414Z,2.10
2022-12-19T01:14:44.280Z,2.20
2022-12-19T01:17:16.433Z,2.20
2022-12-19T01:19:44.557Z,2.20
2022-12-19T01:22:15.259Z,2.20
2022-12-19T01:24:42.140Z,2.20
2022-12-19T01:27:09.076Z,2.20
2022-12-19T01:29:52.158Z,2.20
2022-12-19T01:32:23.259Z,2.20
2022-12-19T01:34:50.119Z,2.20
2022-12-19T01:37:19.187Z,2.20
2022-12-19T01:39:46.371Z,2.30
2022-12-19T01:42:24.291Z,2.30
2022-12-19T01:45:25.673Z,2.30
2022-12-19T01:48:01.350Z,2.30
2022-12-19T01:51:06.191Z,2.30
2022-12-19T01:53:56.746Z,2.30
2022-12-19T01:56:29.986Z,2.30
2022-12-19T01:59:06.334Z,2.30
2022-12-19T02:01:35.325Z,2.30
2022-12-19T02:04:05.541Z,2.40
2022-12-19T02:06:35.093Z,2.40
2022-12-19T02:09:02.554Z,2.40
2022-12-19T02:11:34.690Z,2.40
2022-12-19T02:14:01.715Z,2.50
2022-12-19T02:16:37.545Z,2.50
2022-12-19T02:19:35.030Z,2.40
2022-12-19T02:22:19.146Z,2.50
2022-12-19T02:24:54.283Z,2.40
2022-12-19T02:27:40.083Z,2.50
2022-12-19T02:30:21.696Z,2.40
2022-12-19T02:32:57.619Z,2.40
2022-12-19T02:35:45.072Z,2.40
2022-12-19T02:38:35.172Z,2.50
2022-12-19T02:41:26.106Z,2.50
2022-12-19T02:43:59.043Z,2.50
2022-12-19T02:46:27.769Z,2.50
2022-12-19T02:48:55.190Z,2.50
2022-12-19T02:51:24.496Z,2.60
2022-12-19T02:53:51.853Z,2.60
2022-12-19T02:56:30.187Z,2.60
2022-12-19T02:59:18.536Z,2.60
2022-12-19T03:01:48.224Z,2.60
2022-12-19T03:04:41.303Z,2.60
2022-12-19T03:07:37.921Z,2.60
2022-12-19T03:10:16.589Z,2.60
2022-12-19T03:12:56.796Z,2.60
2022-12-19T03:15:26.907Z,2.70
2022-12-19T03:18:01.945Z,2.70
2022-12-19T03:20:57.037Z,2.70
2022-12-19T03:23:24.067Z,2.70
2022-12-19T03:25:55.441Z,2.70
2022-12-19T03:28:50.867Z,2.70
2022-12-19T03:31:25.457Z,2.70
2022-12-19T03:34:00.699Z,2.70
2022-12-19T03:36:40.548Z,2.70
2022-12-19T03:39:14.626Z,2.80
2022-12-19T03:42:03.533Z,2.80
2022-12-19T03:44:38.360Z,2.80
2022-12-19T03:47:17.902Z,2.80
2022-12-19T03:49:46.394Z,2.80
2022-12-19T03:52:30.263Z,2.80
2022-12-19T03:55:32.309Z,2.80
2022-12-19T03:58:10.259Z,2.90
2022-12-19T04:00:41.856Z,2.90
2022-12-19T04:03:15.226Z,2.90
2022-12-19T04:05:43.885Z,2.90
2022-12-19T04:08:13.622Z,2.90
2022-12-19T04:10:50.316Z,2.90
2022-12-19T04:13:24.046Z,2.90
2022-12-19T04:16:01.193Z,2.90
2022-12-19T04:18:31.173Z,3.00
2022-12-19T04:21:16.941Z,3.00
2022-12-19T04:24:09.449Z,3.00
2022-12-19T04:26:38.134Z,3.00
2022-12-19T04:29:10.306Z,3.00
2022-12-19T04:31:40.443Z,3.10
2022-12-19T04:34:07.446Z,3.00
2022-12-19T04:36:37.016Z,3.10
2022-12-19T04:39:04.127Z,3.10
2022-12-19T04:41:33.634Z,3.10
2022-12-19T04:44:00.525Z,3.10
2022-12-19T04:46:27.506Z,3.10
2022-12-19T04:48:54.505Z,3.10
2022-12-19T04:51:21.474Z,3.20
2022-12-19T04:53:48.496Z,3.20
2022-12-19T04:56:15.437Z,3.20
2022-12-19T04:58:42.392Z,3.20
2022-12-19T05:01:13.997Z,3.20
2022-12-19T05:03:41.415Z,3.20
2022-12-19T05:06:17.090Z,3.20
2022-12-19T05:08:44.343Z,3.30
2022-12-19T05:11:19.190Z,3.30
2022-12-19T05:13:51.644Z,3.30
2022-12-19T05:16:18.871Z,3.30
2022-12-19T05:18:46.081Z,3.30
2022-12-19T05:21:13.651Z,3.40
2022-12-19T05:23:41.371Z,3.40
2022-12-19T05:26:11.193Z,3.40
2022-12-19T05:28:38.105Z,3.40
2022-12-19T05:31:14.683Z,3.40
2022-12-19T05:33:43.199Z,3.40
2022-12-19T05:36:17.293Z,3.40
2022-12-19T05:38:46.871Z,3.40
2022-12-19T05:41:16.776Z,3.40
2022-12-19T05:43:50.970Z,3.40
2022-12-19T05:46:20.352Z,3.50
2022-12-19T05:48:50.184Z,3.40
2022-12-19T05:51:17.862Z,3.50
2022-12-19T05:53:44.844Z,3.50
2022-12-19T05:56:18.179Z,3.50
2022-12-19T05:58:46.182Z,3.50
2022-12-19T06:01:19.246Z,3.50
2022-12-19T06:03:51.805Z,3.50
2022-12-19T06:06:23.096Z,3.50
2022-12-19T06:08:57.473Z,3.60
2022-12-19T06:11:24.521Z,3.60
2022-12-19T06:13:52.293Z,3.60
2022-12-19T06:16:22.140Z,3.60
2022-12-19T06:18:49.509Z,3.60
2022-12-19T06:21:22.862Z,3.60
2022-12-19T06:23:52.263Z,3.60
2022-12-19T06:26:21.639Z,3.60
2022-12-19T06:28:50.670Z,3.70
2022-12-19T06:31:18.942Z,3.70
2022-12-19T06:33:46.311Z,3.70
2022-12-19T06:36:18.863Z,3.70
2022-12-19T06:38:45.812Z,3.70
2022-12-19T06:41:32.275Z,3.70
2022-12-19T06:44:05.498Z,3.70
2022-12-19T06:46:33.323Z,3.70
2022-12-19T06:49:00.799Z,3.70
2022-12-19T06:51:28.172Z,3.70
2022-12-19T06:53:55.508Z,3.70
2022-12-19T06:56:24.843Z,3.70
2022-12-19T06:58:54.285Z,3.70
2022-12-19T07:01:45.939Z,3.70
2022-12-19T07:04:21.345Z,3.70
2022-12-19T07:06:49.396Z,3.80
2022-12-19T07:09:18.993Z,3.80
2022-12-19T07:11:48.417Z,3.80
2022-12-19T07:14:17.666Z,3.80
2022-12-19T07:16:45.019Z,3.80
2022-12-19T07:19:16.707Z,3.80
2022-12-19T07:21:43.928Z,3.80
2022-12-19T07:24:13.376Z,3.80
2022-12-19T07:26:40.961Z,3.90
2022-12-19T07:29:10.031Z,3.90
2022-12-19T07:31:37.513Z,3.90
2022-12-19T07:34:06.764Z,3.90
2022-12-19T07:36:33.628Z,3.90
2022-12-19T07:39:03.356Z,3.90
2022-12-19T07:41:33.012Z,3.90
2022-12-19T07:44:03.740Z,3.90
2022-12-19T07:46:31.449Z,4.00
2022-12-19T07:48:59.120Z,3.90
2022-12-19T07:51:26.896Z,3.90
2022-12-19T07:53:56.017Z,3.90
2022-12-19T07:56:25.147Z,4.00
2022-12-19T07:58:54.802Z,4.00
2022-12-19T08:01:21.746Z,4.00
2022-12-19T08:03:48.763Z,4.00
2022-12-19T08:06:15.795Z,4.10
2022-12-19T08:08:45.253Z,4.10
2022-12-19T08:11:18.935Z,4.10
2022-12-19T08:13:47.149Z,4.10
2022-12-19T08:16:15.331Z,4.10
2022-12-19T08:18:45.037Z,4.10
2022-12-19T08:21:12.018Z,4.10
2022-12-19T08:23:41.519Z,4.10
2022-12-19T08:26:12.882Z,4.10
2022-12-19T08:28:40.272Z,4.10
2022-12-19T08:31:11.682Z,4.20
2022-12-19T08:33:41.051Z,4.30
2022-12-19T08:36:16.101Z,4.30
2022-12-19T08:38:43.015Z,4.40
2022-12-19T08:41:10.272Z,4.40
2022-12-19T08:43:39.749Z,4.40
2022-12-19T08:46:07.508Z,4.50
2022-12-19T08:48:39.985Z,4.50
2022-12-19T08:51:08.947Z,4.50
2022-12-19T08:53:39.050Z,4.60
2022-12-19T08:56:15.135Z,4.60
2022-12-19T08:58:45.119Z,4.70
2022-12-19T09:01:19.358Z,4.70
2022-12-19T09:04:33.987Z,4.70
2022-12-19T09:06:36.974Z,4.80
2022-12-19T09:09:07.172Z,4.80
2022-12-19T09:11:36.157Z,4.80
2022-12-19T09:14:14.723Z,4.80
2022-12-19T09:16:47.427Z,4.90
2022-12-19T09:19:16.487Z,4.90
2022-12-19T09:21:43.938Z,4.90
2022-12-19T09:24:13.500Z,4.90
2022-12-19T09:26:42.066Z,4.90
2022-12-19T09:29:20.319Z,4.90
2022-12-19T09:31:56.108Z,4.90
2022-12-19T09:34:33.194Z,4.90
2022-12-19T09:37:17.046Z,5.00
2022-12-19T09:39:46.400Z,5.00
2022-12-19T09:42:19.612Z,5.10
2022-12-19T09:45:16.209Z,5.10
2022-12-19T09:47:59.306Z,5.10
2022-12-19T09:50:54.766Z,5.10
2022-12-19T09:53:35.559Z,5.20
2022-12-19T09:56:14.766Z,5.20
2022-12-19T09:59:05.836Z,5.30
2022-12-19T10:01:51.088Z,5.30
2022-12-19T10:04:22.878Z,5.40
2022-12-19T10:07:10.475Z,5.40
2022-12-19T10:12:32.956Z,5.50
2022-12-19T10:13:04.842Z,5.50
2022-12-19T10:15:59.877Z,5.50
2022-12-19T10:18:56.690Z,5.60
2022-12-19T10:24:59.575Z,5.60
2022-12-19T10:28:07.286Z,5.70
2022-12-19T10:30:44.872Z,5.70
2022-12-19T10:33:30.966Z,5.70
2022-12-19T10:36:01.997Z,5.80
2022-12-19T10:38:34.253Z,5.80
2022-12-19T10:41:15.114Z,5.80
2022-12-19T10:44:10.257Z,5.80
2022-12-19T10:46:47.616Z,5.80
2022-12-19T10:49:20.191Z,5.80
2022-12-19T10:51:56.159Z,5.80
2022-12-19T10:54:30.670Z,5.90
2022-12-19T10:57:18.402Z,5.90
2022-12-19T11:00:16.088Z,5.90
2022-12-19T11:02:51.610Z,5.90
2022-12-19T11:05:39.765Z,5.90
2022-12-19T11:08:06.694Z,5.90
2022-12-19T11:12:32.306Z,6.00
2022-12-19T11:17:46.451Z,6.00
2022-12-19T11:26:00.043Z,6.00
2022-12-19T11:29:39.075Z,6.00
2022-12-19T11:30:08.859Z,6.00
2022-12-19T11:30:09.923Z,6.10
2022-12-19T11:30:48.368Z,6.10
2022-12-19T11:34:23.967Z,6.10
2022-12-19T11:37:07.800Z,6.20
2022-12-19T11:39:53.468Z,6.20
2022-12-19T11:46:06.873Z,6.20
2022-12-19T11:49:20.362Z,6.20
2022-12-19T11:53:02.463Z,6.30
2022-12-19T11:55:48.847Z,6.30
2022-12-19T11:58:18.192Z,6.30
2022-12-19T12:00:58.810Z,6.30
2022-12-19T12:04:01.120Z,6.30
2022-12-19T12:06:45.494Z,6.30
2022-12-19T12:12:21.912Z,6.40
2022-12-19T12:19:48.626Z,6.40
2022-12-19T12:23:08.516Z,6.40
2022-12-19T12:30:05.551Z,6.40
2022-12-19T12:31:08.774Z,6.30
2022-12-19T12:31:39.009Z,6.40
2022-12-19T12:32:06.163Z,6.40
2022-12-19T12:35:38.051Z,6.40
2022-12-19T12:35:38.056Z,6.40
2022-12-19T12:38:25.016Z,6.40
2022-12-19T12:41:42.367Z,6.40
2022-12-19T12:44:12.363Z,6.40
2022-12-19T12:46:50.238Z,6.40
2022-12-19T12:49:38.103Z,6.40
2022-12-19T12:52:11.951Z,6.40
2022-12-19T12:54:46.579Z,6.50
2022-12-19T12:57:29.857Z,6.50
2022-12-19T13:00:34.055Z,6.50
2022-12-19T13:03:18.031Z,6.50
2022-12-19T13:05:54.590Z,6.50
2022-12-19T13:08:40.066Z,6.50
2022-12-19T13:11:38.261Z,6.60
2022-12-19T13:14:35.533Z,6.60
2022-12-19T13:17:08.234Z,6.60
2022-12-19T13:20:17.537Z,6.60
2022-12-19T13:23:39.364Z,6.60
2022-12-19T13:26:22.692Z,6.50
2022-12-19T13:28:54.174Z,6.50
2022-12-19T13:31:23.983Z,6.50
2022-12-19T13:33:56.276Z,6.50
2022-12-19T13:39:47.684Z,6.50
2022-12-19T13:40:12.055Z,6.50
2022-12-19T13:43:25.612Z,6.40
2022-12-19T13:46:04.084Z,6.40
2022-12-19T13:48:37.817Z,6.30
2022-12-19T13:51:08.384Z,6.40
2022-12-19T13:53:39.209Z,6.30
2022-12-19T13:56:15.538Z,6.40
2022-12-19T13:58:45.378Z,6.40
2022-12-19T14:01:23.892Z,6.40
2022-12-19T14:03:54.425Z,6.40
2022-12-19T14:06:31.256Z,6.40
2022-12-19T14:11:06.120Z,6.40
2022-12-19T14:13:46.160Z,6.40
2022-12-19T14:15:14.083Z,6.40
2022-12-19T14:17:48.393Z,6.40
2022-12-19T14:21:19.451Z,6.40
2022-12-19T14:23:12.773Z,6.40
2022-12-19T14:28:24.277Z,6.40
2022-12-19T14:29:14.903Z,6.30
2022-12-19T14:31:58.709Z,6.30
2022-12-19T14:35:03.928Z,6.30
2022-12-19T14:38:44.940Z,6.30
2022-12-19T14:40:31.582Z,6.30
2022-12-19T14:43:59.551Z,6.30
2022-12-19T14:52:25.145Z,6.30
2022-12-19T14:54:05.396Z,6.30
2022-12-19T14:54:20.955Z,6.20
2022-12-19T14:56:04.217Z,6.20
2022-12-19T14:58:55.687Z,6.20
2022-12-19T15:01:30.824Z,6.20
2022-12-19T15:04:51.503Z,6.10
2022-12-19T15:07:30.957Z,6.10
2022-12-19T15:11:02.797Z,6.10
2022-12-19T15:14:55.375Z,6.10
2022-12-19T15:16:09.261Z,6.00
2022-12-19T15:18:41.591Z,6.00
2022-12-19T15:21:13.724Z,6.00
2022-12-19T15:23:43.902Z,5.90
2022-12-19T15:26:27.279Z,5.90
2022-12-19T15:28:57.667Z,5.90
2022-12-19T15:31:44.632Z,5.80
2022-12-19T15:34:37.222Z,5.80
2022-12-19T15:37:16.239Z,5.80
2022-12-19T15:39:47.128Z,5.80
2022-12-19T15:42:25.150Z,5.70
2022-12-19T15:44:54.240Z,5.70
2022-12-19T15:47:33.926Z,5.70
2022-12-19T15:50:09.270Z,5.60
2022-12-19T15:52:36.176Z,5.70
2022-12-19T15:55:05.829Z,5.60
2022-12-19T15:57:44.216Z,5.60
2022-12-19T16:00:35.610Z,5.60
2022-12-19T16:05:54.324Z,5.50
2022-12-19T16:08:26.221Z,5.50
2022-12-19T16:11:01.443Z,5.50
2022-12-19T16:13:35.216Z,5.40
2022-12-19T16:16:07.967Z,5.40
2022-12-19T16:18:39.864Z,5.40
2022-12-19T16:21:27.480Z,5.40
2022-12-19T16:24:00.334Z,5.40
2022-12-19T16:26:40.501Z,5.40
2022-12-19T16:29:21.238Z,5.40
2022-12-19T16:31:48.380Z,5.40
2022-12-19T16:34:21.574Z,5.40
2022-12-19T16:36:49.054Z,5.30
2022-12-19T16:39:19.573Z,5.30
2022-12-19T16:41:47.245Z,5.30
2022-12-19T16:44:23.118Z,5.30
2022-12-19T16:46:52.918Z,5.30
2022-12-19T16:49:25.512Z,5.30
2022-12-19T16:51:55.589Z,5.30
2022-12-19T16:54:22.582Z,5.30
2022-12-19T16:56:55.506Z,5.30
2022-12-19T16:59:40.256Z,5.20
2022-12-19T17:02:50.485Z,5.20
2022-12-19T17:05:29.680Z,5.20
2022-12-19T17:07:57.971Z,5.20
2022-12-19T17:10:31.784Z,5.20
2022-12-19T17:13:04.208Z,5.20
2022-12-19T17:15:36.675Z,5.10
2022-12-19T17:18:30.785Z,5.10
2022-12-19T17:20:58.021Z,5.10
2022-12-19T17:23:26.815Z,5.10
2022-12-19T17:25:55.842Z,5.10
2022-12-19T17:28:23.064Z,5.10
2022-12-19T17:30:53.793Z,5.10
2022-12-19T17:33:32.267Z,5.10
2022-12-19T17:36:04.128Z,5.10
2022-12-19T17:38:31.221Z,5.10
2022-12-19T17:40:58.646Z,5.10
2022-12-19T17:43:28.129Z,5.10
2022-12-19T17:45:57.616Z,5.10
2022-12-19T17:48:33.424Z,5.10
2022-12-19T17:51:00.597Z,5.00
2022-12-19T17:53:30.055Z,5.00
2022-12-19T17:55:59.971Z,5.00
2022-12-19T17:58:29.872Z,5.00
2022-12-19T18:00:59.314Z,5.00
2022-12-19T18:03:29.446Z,5.00
2022-12-19T18:05:58.364Z,5.00
2022-12-19T18:08:30.649Z,4.90
2022-12-19T18:11:01.212Z,4.90
2022-12-19T18:13:30.660Z,4.90
2022-12-19T18:16:03.413Z,5.00
2022-12-19T18:18:35.097Z,4.90
2022-12-19T18:21:03.083Z,4.90
2022-12-19T18:23:32.816Z,4.90
2022-12-19T18:26:02.426Z,4.90
2022-12-19T18:28:33.305Z,4.90
2022-12-19T18:31:21.102Z,4.90
2022-12-19T18:33:48.501Z,4.90
2022-12-19T18:36:27.172Z,4.90
2022-12-19T18:38:58.136Z,4.90
2022-12-19T18:41:26.277Z,4.90
2022-12-19T18:43:53.444Z,4.90
2022-12-19T18:46:27.408Z,4.80
2022-12-19T18:48:55.947Z,4.80
2022-12-19T18:51:23.231Z,4.80
2022-12-19T18:53:51.801Z,4.80
2022-12-19T18:56:18.739Z,4.80
2022-12-19T18:58:46.732Z,4.80
2022-12-19T19:01:20.326Z,4.70
2022-12-19T19:03:59.409Z,4.70
2022-12-19T19:06:34.303Z,4.70
2022-12-19T19:09:04.515Z,4.70
2022-12-19T19:11:31.425Z,4.70
2022-12-19T19:13:58.411Z,4.70
2022-12-19T19:16:27.589Z,4.70
2022-12-19T19:18:57.664Z,4.70
2022-12-19T19:21:30.412Z,4.70
2022-12-19T19:24:14.260Z,4.70
2022-12-19T19:26:41.238Z,4.60
2022-12-19T19:29:10.976Z,4.60
2022-12-19T19:31:45.386Z,4.50
2022-12-19T19:34:27.245Z,4.50
2022-12-19T19:36:57.662Z,4.60
2022-12-19T19:39:24.848Z,4.60
2022-12-19T19:41:56.110Z,4.60
2022-12-19T19:44:23.210Z,4.60
2022-12-19T19:46:52.748Z,4.60
2022-12-19T19:49:25.427Z,4.60
2022-12-19T19:52:02.514Z,4.60
2022-12-19T19:54:31.623Z,4.60
2022-12-19T19:57:00.911Z,4.50
2022-12-19T19:59:31.561Z,4.50
2022-12-19T20:01:58.822Z,4.50
2022-12-19T20:04:28.745Z,4.50
2022-12-19T20:06:57.791Z,4.40
2022-12-19T20:09:27.036Z,4.30
2022-12-19T20:11:56.183Z,4.30
2022-12-19T20:14:23.861Z,4.30
2022-12-19T20:16:51.250Z,4.30
2022-12-19T20:19:20.690Z,4.30
2022-12-19T20:21:47.609Z,4.30
2022-12-19T20:24:14.506Z,4.30
2022-12-19T20:26:43.902Z,4.30
2022-12-19T20:29:11.572Z,4.30
2022-12-19T20:31:39.679Z,4.30
2022-12-19T20:34:09.732Z,4.30
2022-12-19T20:36:39.675Z,4.20
2022-12-19T20:39:09.530Z,4.30
2022-12-19T20:41:36.453Z,4.30
2022-12-19T20:44:03.769Z,4.20
2022-12-19T20:46:30.959Z,4.20
2022-12-19T20:49:00.884Z,4.20
2022-12-19T20:51:30.140Z,4.20
2022-12-19T20:54:00.100Z,4.20
2022-12-19T20:56:27.072Z,4.20
2022-12-19T20:58:54.104Z,4.20
2022-12-19T21:01:24.224Z,4.20
2022-12-19T21:03:54.368Z,4.20
2022-12-19T21:06:25.436Z,4.20
2022-12-19T21:08:54.529Z,4.20
2022-12-19T21:11:26.206Z,4.20
2022-12-19T21:13:56.016Z,4.20
2022-12-19T21:16:26.611Z,4.20
2022-12-19T21:18:53.549Z,4.20
2022-12-19T21:21:25.202Z,4.20
2022-12-19T21:23:53.736Z,4.20
2022-12-19T21:26:22.694Z,4.20
2022-12-19T21:28:49.802Z,4.20
2022-12-19T21:31:25.070Z,4.20
2022-12-19T21:33:56.537Z,4.20
2022-12-19T21:36:25.042Z,4.20
2022-12-19T21:38:55.469Z,4.20
2022-12-19T21:41:23.260Z,4.20
2022-12-19T21:43:53.998Z,4.20
2022-12-19T21:46:27.230Z,4.20
2022-12-19T21:48:57.908Z,4.20
2022-12-19T21:51:29.227Z,4.20
2022-12-19T21:54:00.552Z,4.20
2022-12-19T21:56:36.465Z,4.20
2022-12-19T21:59:13.249Z,4.20
2022-12-19T22:01:41.528Z,4.20
2022-12-19T22:04:17.732Z,4.20
2022-12-19T22:06:47.901Z,4.20
2022-12-19T22:09:18.667Z,4.20
2022-12-19T22:11:46.110Z,4.20
2022-12-19T22:14:15.341Z,4.20
2022-12-19T22:16:42.919Z,4.20
2022-12-19T22:19:14.209Z,4.20
2022-12-19T22:21:43.715Z,4.20
2022-12-19T22:24:15.718Z,4.20
2022-12-19T22:26:43.570Z,4.20
2022-12-19T22:29:15.830Z,4.20
2022-12-19T22:31:44.426Z,4.20
2022-12-19T22:34:21.047Z,4.20
2022-12-19T22:36:50.941Z,4.20
2022-12-19T22:39:20.699Z,4.20
2022-12-19T22:41:48.250Z,4.20
2022-12-19T22:44:23.004Z,4.20
2022-12-19T22:46:55.039Z,4.20
2022-12-19T22:49:21.951Z,4.20
2022-12-19T22:51:49.339Z,4.20
2022-12-19T22:54:18.743Z,4.10
2022-12-19T22:56:45.684Z,4.10
2022-12-19T22:59:15.398Z,4.20
2022-12-19T23:01:46.062Z,4.20
2022-12-19T23:04:17.606Z,4.20
2022-12-19T23:06:47.292Z,4.20
2022-12-19T23:09:16.852Z,4.20
2022-12-19T23:11:47.999Z,4.20
2022-12-19T23:14:18.252Z,4.20
2022-12-19T23:16:48.309Z,4.20
2022-12-19T23:19:18.526Z,4.10
2022-12-19T23:21:45.592Z,4.20
2022-12-19T23:24:15.101Z,4.20
2022-12-19T23:26:42.264Z,4.20
2022-12-19T23:29:13.331Z,4.20
2022-12-19T23:31:44.250Z,4.20
2022-12-19T23:34:11.571Z,4.20
2022-12-19T23:39:28.759Z,4.20
2022-12-19T23:41:56.025Z,4.20
2022-12-19T23:44:26.039Z,4.20
2022-12-19T23:46:56.575Z,4.20
2022-12-19T23:49:27.762Z,4.20
2022-12-19T23:51:54.746Z,4.20
2022-12-19T23:54:21.677Z,4.20
2022-12-19T23:56:49.580Z,4.20
2022-12-19T23:59:16.483Z,4.20
